CBNK1: Chikaskia River At Corbin

Data processed at Sun Sep 23 2018 23:02


All information presented herein is the property of the government of the United States of America and may be revised or deleted at any time without prior notice.
Dissemination of this information without the expressed written consent of the Public Affairs Office, Tulsa District U.S. Army Corps of Engineers is strictly prohibited.
These data are gathered electronically and, as presented, have not undergone any form of quality control. These data are not guaranteed to be valid or correct.
Go to home page.
Go to station list.
Go to home page.

Downstream station:


Previous Day
Next Day
Current Day
    
SHEF ID:       CBNK1     CHIKASKIA R NR CORBIN, KS
STATION TYPE:  

               PRECIP     STAGE  RIV-FLOW  WTR-TEMP  BAT-LOAD
                   in        ft       cfs         F      volt
              Ccp-Rev   Ccp-Rev   Ccp-Rev   Ccp-Rev   Ccp-Rev
(US/Central)
09/23 00:00      0.00      3.66       650     69.26     12.73
09/23 01:00      0.00      3.61       626     69.08     12.73
09/23 02:00      0.00      3.62       631     68.72     12.65
09/23 03:00      0.00      3.58       612     68.36     12.65
09/23 04:00      0.00      3.54       592     68.00     12.65
09/23 05:00      0.00      3.52       583     67.64     12.65
09/23 06:00      0.00      3.49       569     67.28     12.65
09/23 07:00      0.00      3.25       460     67.10     12.65
09/23 08:00      0.00      3.16       422     66.92     12.65
09/23 09:00      0.00      3.14       414     67.10     12.65
09/23 10:00      0.00      3.10       397     67.10     12.73
09/23 11:00      0.00      3.06       381     67.46     12.97
09/23 12:00      0.00      3.02       365     68.00     13.29
09/23 13:00      0.00      2.99       353     68.90     13.37
09/23 14:00      0.00      3.02       365     69.80     13.29
09/23 15:00      0.00      2.97       345     71.60     13.29
09/23 16:00      0.00      2.95       337     72.86     13.29
09/23 17:00      0.00      2.91       322     72.50     13.13
09/23 18:00      0.00      2.92       326     72.32     13.53
09/23 19:00      0.00      2.89       315     71.96     13.29
09/23 20:00      0.00      2.87       307     72.14     12.89
09/23 21:00      0.00      2.84       296     71.60     12.81
09/23 22:00      0.00      2.82       289     71.42     12.81
09/23 23:00      ----      ----      ----      ----      ----